Aruja, Brazil
Current Conditions -  °F | °C
As of 5:00 PM on Monday 20 Oct 2014 (Local Time) from SBGR Reporting Station
Broken Clouds Broken Clouds  
Wind Chill: 66°   Ceiling: 1100
Heat Index: 66°   Visibility: 6mi
Dew Point: 63°   Wind: 8mph
Humidity: 88%   Direction: 160°SSE
Pressure: 30.09"   Gusts: NA
Location:  23.4°S, 46.34°W
Report Text: SBGR 202000Z 16007KT 9999 BKN011 19/17 Q1019
Loading
Personal Weather Stations






























Interactive Weather Map
Tropical Storm Tracking
New forecast layout! Learn more

10-Day Weather Forecast

Advertisements
Track Severe Weather on mobile